Terminal Aerodrome Forecast
Issued by NWS

Home | Current Version | Previous Version | Text Only | Print | Product List | Glossary On
Versions: 1 2 3 4 5 6 7 8 9 10 11 12 13 14 15 16 17 18 19
442
FTUS43 KIND 241122
TAFLAF
TAF
KLAF 241122Z 2412/2512 20005KT P6SM SKC
     FM241500 20010KT P6SM FEW250
     FM242000 19015G23KT P6SM FEW250
     FM250400 22013KT P6SM SCT250
     FM250700 25009KT P6SM BKN200
     FM251100 30007KT P6SM SCT120
      AMD LTD TO CLD VIS AND WIND TIL 241400=

USA.gov is the U.S. government's official web portal to all federal, state and local government web resources and services.